Latest Weather Observations for Longerenong

IDV60801

Issued at 9:05 pm EDT Saturday 22 November 2014 (issued every 30 minutes, with the page automatically refreshed every 10 minutes)

About weather observations | Map of weather stations | Latest weather observations for VIC | Other Formats
Station Details ID: 079028 Name: LONGERENONG Lat: -36.67 Lon: 142.30 Height: 133.0 m
Data from the previous 72 hours. | See also: Recent months at Longerenong
Date/Time
EDT
Temp
°C
App
Temp
°C
Dew
Point
Rel
Hum
%
Delta-T
°C
Wind Press
QNH
hPa
Press
MSL
hPa
Rain
since 9 am
mm
Dir
 
Spd
km/h
Gust
km/h
Spd
kts
Gust
kts
22/09:00pm 18.7 - - - - NW 13 19 7 10 - - 0.0
22/08:30pm 19.2 - - - - NNW 15 24 8 13 - - 0.0
22/08:00pm 20.1 - - - - NNW 17 26 9 14 - - 0.0
22/07:30pm 21.3 - - - - NNW 22 32 12 17 - - 0.0
22/07:00pm 22.9 - - - - NNW 26 35 14 19 - - 0.0
22/06:30pm 22.7 - - - - NNW 17 22 9 12 - - 0.0
22/06:00pm 23.4 - - - - NW 28 37 15 20 - - 0.0
22/05:30pm 25.1 - - - - NNW 32 43 17 23 - - 0.0
22/05:00pm 25.9 - - - - N 35 48 19 26 - - 0.0
22/04:30pm 27.3 - - - - NNW 39 52 21 28 - - 0.0
22/04:00pm 27.8 - - - - NNW 35 54 19 29 - - 0.0
22/03:56pm 27.7 - - - - NNW 33 54 18 29 - - 0.0
22/03:30pm 28.5 - - - - NNW 39 52 21 28 - - 0.0
22/03:00pm 29.2 - - - - NNW 41 56 22 30 - - 0.0
22/02:30pm 29.7 - - - - NNW 41 59 22 32 - - 0.0
22/02:16pm 30.2 - - - - NNW 39 59 21 32 - - 0.0
22/02:00pm 29.5 - - - - NNW 41 54 22 29 - - 0.0
22/01:30pm 31.2 - - - - NNW 33 48 18 26 - - 0.0
22/01:00pm 28.7 - - - - N 35 52 19 28 - - 0.0
22/12:30pm 28.1 - - - - N 39 59 21 32 - - 0.0
22/12:21pm 27.2 - - - - N 35 59 19 32 - - 0.0
22/12:00pm 26.9 - - - - N 30 46 16 25 - - 0.0
22/11:30am 25.1 - - - - N 24 35 13 19 - - 0.0
22/11:00am 23.3 - - - - NNE 28 46 15 25 - - 0.0
22/10:56am 23.4 - - - - NNE 28 33 15 18 - - 0.0
22/10:30am 21.9 - - - - NE 7 13 4 7 - - 0.0
22/10:00am 20.5 - - - - NNE 4 7 2 4 - - 0.0
22/09:30am 20.2 - - - - NE 6 9 3 5 - - 0.0
22/09:00am 19.9 - - - - NE 11 17 6 9 - - 0.0
22/08:30am 18.6 - - - - ENE 13 19 7 10 - - 0.0
22/08:00am 15.9 - - - - ESE 13 17 7 9 - - 0.0
22/07:30am 14.0 - - - - ESE 11 17 6 9 - - 0.0
22/07:00am 12.9 - - - - ESE 7 11 4 6 - - 0.0
22/06:30am 12.0 - - - - E 9 11 5 6 - - 0.0
22/06:00am 12.1 - - - - ENE 11 15 6 8 - - 0.0
22/05:30am 11.8 - - - - E 9 13 5 7 - - 0.0
22/05:00am 12.1 - - - - E 9 11 5 6 - - 0.0
22/04:30am 12.3 - - - - E 11 13 6 7 - - 0.0
22/04:00am 12.9 - - - - E 9 11 5 6 - - 0.0
22/03:30am 12.7 - - - - E 9 11 5 6 - - 0.0
22/03:00am 10.0 - - - - ESE 6 7 3 4 - - 0.0
22/02:30am 11.7 - - - - CALM 0 0 0 0 - - 0.0
22/02:00am 13.1 - - - - CALM 0 0 0 0 - - 0.0
22/01:30am 13.2 - - - - NW 4 4 2 2 - - 0.0
22/01:00am 13.1 - - - - NW 4 4 2 2 - - 0.0
22/12:30am 12.8 - - - - NW 6 6 3 3 - - 0.0
22/12:00am 13.3 - - - - WNW 7 9 4 5 - - 0.0
 
Date/Time
EDT
Temp
°C
App
Temp
°C
Dew
Point
Rel
Hum
%
Delta-T
°C
Wind Press
QNH
hPa
Press
MSL
hPa
Rain
since 9 am
mm
Dir
 
Spd
km/h
Gust
km/h
Spd
kts
Gust
kts
21/11:30pm 13.9 - - - - W 6 7 3 4 - - 0.0
21/11:00pm 15.8 - - - - W 7 9 4 5 - - 0.0
21/10:30pm 15.5 - - - - NW 6 7 3 4 - - 0.0
21/10:00pm 16.5 - - - - NW 6 6 3 3 - - 0.0
21/09:30pm 19.1 - - - - WSW 2 4 1 2 - - 0.0
21/09:00pm 20.1 - - - - WSW 4 4 2 2 - - 0.0
21/08:30pm 21.4 - - - - W 7 13 4 7 - - 0.0
21/08:00pm 23.4 - - - - W 11 17 6 9 - - 0.0
21/07:30pm 23.8 - - - - WSW 11 15 6 8 - - 0.0
21/07:00pm 24.8 - - - - WSW 13 20 7 11 - - 0.0
21/06:30pm 25.1 - - - - W 15 26 8 14 - - 0.0
21/06:00pm 25.4 - - - - W 15 32 8 17 - - 0.0
21/05:30pm 25.1 - - - - W 20 30 11 16 - - 0.0
21/05:00pm 25.2 - - - - W 19 26 10 14 - - 0.0
21/04:30pm 25.3 - - - - WNW 15 26 8 14 - - 0.0
21/04:00pm 24.5 - - - - WNW 19 30 10 16 - - 0.0
21/03:30pm 24.4 - - - - WSW 15 28 8 15 - - 0.0
21/03:00pm 24.5 - - - - W 13 20 7 11 - - 0.0
21/02:30pm 22.8 - - - - WSW 11 20 6 11 - - 0.0
21/02:00pm 21.8 - - - - SW 9 20 5 11 - - 0.0
21/01:30pm 21.3 - - - - WNW 7 19 4 10 - - 0.0
21/01:00pm 19.9 - - - - W 11 19 6 10 - - 0.0
21/12:30pm 19.6 - - - - SW 9 22 5 12 - - 0.0
21/12:00pm 19.5 - - - - WSW 13 22 7 12 - - 0.0
21/11:30am 18.4 - - - - WSW 15 24 8 13 - - 0.0
21/11:00am 17.6 - - - - WSW 17 22 9 12 - - 0.0
21/10:30am 17.3 - - - - WSW 19 26 10 14 - - 0.0
21/10:00am 16.9 - - - - SSW 20 30 11 16 - - 0.0
21/09:30am 15.8 - - - - SSW 19 28 10 15 - - 0.0
21/09:00am 15.3 - - - - SW 13 22 7 12 - - 2.2
21/08:30am 13.7 - - - - SW 13 20 7 11 - - 2.2
21/08:00am 13.4 - - - - SSW 13 20 7 11 - - 2.2
21/07:30am 13.0 - - - - SW 15 20 8 11 - - 2.2
21/07:00am 12.9 - - - - SW 17 26 9 14 - - 2.2
21/06:30am 12.8 - - - - SW 17 26 9 14 - - 2.2
21/06:00am 13.1 - - - - SW 17 22 9 12 - - 2.2
21/05:30am 13.5 - - - - WSW 15 20 8 11 - - 2.2
21/05:00am 14.3 - - - - SW 17 26 9 14 - - 2.2
21/04:30am 14.6 - - - - WSW 13 19 7 10 - - 2.2
21/04:00am 14.7 - - - - WSW 15 24 8 13 - - 2.2
21/03:30am 14.9 - - - - WSW 15 24 8 13 - - 2.2
21/03:00am 14.7 - - - - WSW 19 28 10 15 - - 2.2
21/02:30am 15.0 - - - - SW 13 17 7 9 - - 2.2
21/02:00am 15.2 - - - - SW 19 33 10 18 - - 2.2
21/01:30am 15.4 - - - - WSW 22 32 12 17 - - 2.2
21/01:00am 15.4 - - - - WSW 20 28 11 15 - - 2.2
21/12:30am 15.8 - - - - WSW 17 24 9 13 - - 2.2
21/12:00am 16.0 - - - - W 20 24 11 13 - - 2.2
 
Date/Time
EDT
Temp
°C
App
Temp
°C
Dew
Point
Rel
Hum
%
Delta-T
°C
Wind Press
QNH
hPa
Press
MSL
hPa
Rain
since 9 am
mm
Dir
 
Spd
km/h
Gust
km/h
Spd
kts
Gust
kts
20/11:30pm 16.6 - - - - W 22 33 12 18 - - 2.2
20/11:00pm 17.0 - - - - W 15 20 8 11 - - 2.2
20/10:30pm 17.8 - - - - WNW 7 11 4 6 - - 2.2
20/10:00pm 18.5 - - - - W 15 20 8 11 - - 2.2
20/09:30pm 19.0 - - - - NNW 11 32 6 17 - - 2.2
20/09:00pm 18.9 - - - - NNW 13 17 7 9 - - 2.2
20/08:30pm 19.2 - - - - N 13 15 7 8 - - 2.2
20/08:00pm 19.7 - - - - NNW 17 26 9 14 - - 2.2
20/07:30pm 19.5 - - - - NNW 15 22 8 12 - - 2.2
20/07:00pm 19.4 - - - - NNW 15 20 8 11 - - 2.0
20/06:30pm 19.4 - - - - N 13 20 7 11 - - 1.8
20/06:00pm 19.5 - - - - N 13 19 7 10 - - 1.8
20/05:30pm 19.6 - - - - NW 13 19 7 10 - - 1.2
20/05:00pm 20.0 - - - - WNW 13 20 7 11 - - 0.6
20/04:30pm 20.6 - - - - WNW 15 19 8 10 - - 0.0
20/04:00pm 21.3 - - - - W 24 33 13 18 - - 0.0
20/03:30pm 21.4 - - - - WNW 22 30 12 16 - - 0.0
20/03:00pm 21.8 - - - - W 22 33 12 18 - - 0.0
20/02:30pm 23.7 - - - - W 28 41 15 22 - - 0.0
20/02:00pm 23.5 - - - - W 22 30 12 16 - - 0.0
20/01:30pm 23.2 - - - - W 22 32 12 17 - - 0.0
20/01:00pm 24.1 - - - - W 24 35 13 19 - - 0.0
20/12:31pm 24.3 - - - - W 28 46 15 25 - - 0.0
20/12:30pm 24.4 - - - - W 30 46 16 25 - - 0.0
20/12:00pm 26.9 - - - - W 32 46 17 25 - - 0.0
20/11:30am 27.0 - - - - WSW 32 43 17 23 - - 0.0
20/11:18am 27.4 - - - - W 28 44 15 24 - - 0.0
20/11:00am 27.3 - - - - WNW 20 26 11 14 - - 0.0
20/10:30am 27.4 - - - - WNW 19 28 10 15 - - 0.0
20/10:00am 27.1 - - - - NNW 19 24 10 13 - - 0.0
20/09:30am 25.9 - - - - NNW 20 30 11 16 - - 0.0
20/09:00am 24.7 - - - - NNW 20 30 11 16 - - 0.0
20/08:30am 23.2 - - - - N 13 19 7 10 - - 0.0
20/08:00am 21.6 - - - - N 15 20 8 11 - - 0.0
20/07:30am 20.6 - - - - N 15 24 8 13 - - 0.0
20/07:00am 19.8 - - - - NNE 15 24 8 13 - - 0.0
20/06:30am 19.5 - - - - NNE 15 26 8 14 - - 0.0
20/06:00am 19.8 - - - - NNE 15 24 8 13 - - 0.0
20/05:30am 19.2 - - - - NNE 13 20 7 11 - - 0.0
20/05:00am 18.9 - - - - NNE 11 19 6 10 - - 0.0
20/04:30am 18.9 - - - - NNE 11 19 6 10 - - 0.0
20/04:00am 19.5 - - - - NNE 11 19 6 10 - - 0.0
20/03:30am 20.1 - - - - NNE 15 22 8 12 - - 0.0
20/03:00am 19.7 - - - - NNE 13 20 7 11 - - 0.0
20/02:30am 19.9 - - - - NNE 11 17 6 9 - - 0.0
20/02:00am 20.4 - - - - N 13 19 7 10 - - 0.0
20/01:30am 21.4 - - - - NNE 15 22 8 12 - - 0.0
20/01:00am 21.6 - - - - NNE 13 20 7 11 - - 0.0
20/12:30am 22.5 - - - - NNE 13 19 7 10 - - 0.0
20/12:00am 20.6 - - - - NNE 11 15 6 8 - - 0.0
 
Date/Time
EDT
Temp
°C
App
Temp
°C
Dew
Point
Rel
Hum
%
Delta-T
°C
Wind Press
QNH
hPa
Press
MSL
hPa
Rain
since 9 am
mm
Dir
 
Spd
km/h
Gust
km/h
Spd
kts
Gust
kts
19/11:30pm 20.1 - - - - NE 7 11 4 6 - - 0.0
19/11:00pm 22.0 - - - - N 7 11 4 6 - - 0.0
19/10:30pm 21.7 - - - - NNE 7 9 4 5 - - 0.0
19/10:00pm 18.8 - - - - N 6 7 3 4 - - 0.0
19/09:30pm 23.4 - - - - N 7 9 4 5 - - 0.0

Other Formats:

Comma delimited format used in spreadsheet applications
http://www.bom.gov.au/fwo/IDV60801/IDV60801.95835.axf

JavaScript Object Notation format (JSON) in row-major order
http://www.bom.gov.au/fwo/IDV60801/IDV60801.95835.json